Time;durP1;ratioP1;P1;durP2;ratioP2;P2;SDS_P1;SDS_P2;PMS_P1;PMS_P2;Temp;Humidity;BMP_temperature;BMP_pressure;BME280_temperature;BME280_humidity;BME280_pressure;Samples;Min_cycle;Max_cycle;Signal;HPM_P1;HPM_P2
2022/01/26 05:31:17;;;;;;;;;55.00;43.00;;;;;4.79;63.09;103045.34;1424398;26;46129;-75
2022/01/26 05:33:42;;;;;;;;;54.67;42.00;;;;;4.84;62.89;103056.06;5055165;28;45562;-76
2022/01/26 05:36:08;;;;;;;;;41.00;35.25;;;;;4.76;63.38;103040.00;5058482;28;45291;-77
2022/01/26 05:38:34;;;;;;;;;44.25;39.00;;;;;4.87;63.01;103045.44;5064077;28;45295;-76
2022/01/26 05:41:01;;;;;;;;;50.67;40.00;;;;;4.69;63.11;103010.63;5059826;28;45147;-76
2022/01/26 05:43:29;;;;;;;;;58.33;40.00;;;;;4.87;63.25;103043.69;5057860;28;46227;-77
2022/01/26 05:45:59;;;;;;;;;52.00;38.50;;;;;4.90;62.35;103038.44;5051829;28;45346;-77
2022/01/26 05:48:24;;;;;;;;;51.67;41.33;;;;;4.91;62.78;103045.53;5041611;28;45357;-76
2022/01/26 05:50:52;;;;;;;;;48.00;37.00;;;;;4.92;62.72;103042.00;5055921;28;45575;-76
2022/01/26 05:53:21;;;;;;;;;49.33;37.67;;;;;4.91;63.02;103040.22;5055036;28;46083;-77
2022/01/26 05:55:51;;;;;;;;;54.00;39.67;;;;;4.87;62.84;103033.06;5054486;28;45404;-76
2022/01/26 05:58:16;;;;;;;;;52.33;41.33;;;;;5.00;63.00;103051.84;5054807;28;45260;-77
2022/01/26 06:00:43;;;;;;;;;47.50;31.50;;;;;4.89;62.90;103027.78;5054097;28;45489;-76
2022/01/26 06:03:09;;;;;;;;;60.00;43.33;;;;;4.93;62.46;103034.94;5054313;28;45977;-75
2022/01/26 06:05:34;;;;;;;;;56.00;42.00;;;;;4.99;62.83;103044.75;5054704;28;45448;-72
2022/01/26 06:07:59;;;;;;;;;46.33;40.00;;;;;4.99;62.26;103056.28;5058311;28;45401;-76
2022/01/26 06:10:25;;;;;;;;;42.67;34.67;;;;;4.87;62.29;103046.34;5054306;28;45528;-78
2022/01/26 06:12:50;;;;;;;;;54.67;41.33;;;;;4.90;62.79;103050.81;5055028;28;45299;-75
2022/01/26 06:15:15;;;;;;;;;46.00;37.67;;;;;4.91;62.62;103060.59;5054859;28;45479;-77
2022/01/26 06:17:41;;;;;;;;;51.00;42.00;;;;;4.89;62.65;103052.59;5054872;28;45801;-77
2022/01/26 06:20:07;;;;;;;;;49.33;41.33;;;;;4.94;62.84;103060.63;5053027;28;45675;-76
2022/01/26 06:22:33;;;;;;;;;55.67;44.00;;;;;4.94;62.51;103061.50;5054535;28;46027;-77
2022/01/26 06:25:04;;;;;;;;;49.67;40.00;;;;;4.87;62.50;103058.75;5053297;28;45480;-76
2022/01/26 06:27:30;;;;;;;;;52.33;40.00;;;;;4.75;62.30;103056.81;5054498;28;45408;-78
2022/01/26 06:29:55;;;;;;;;;60.33;45.00;;;;;4.78;62.90;103079.88;5034267;28;45386;-76
2022/01/26 06:32:22;;;;;;;;;54.33;40.00;;;;;4.70;63.09;103071.78;5053969;28;46171;-77
2022/01/26 06:34:47;;;;;;;;;54.67;40.00;;;;;4.76;63.10;103081.63;5053779;28;45510;-74
2022/01/26 06:37:15;;;;;;;;;57.67;42.00;;;;;4.81;63.35;103096.75;5054537;28;45417;-76
2022/01/26 06:39:40;;;;;;;;;54.67;39.33;;;;;4.84;62.96;103114.53;5054114;28;45480;-74
2022/01/26 06:42:12;;;;;;;;;56.33;44.00;;;;;4.83;63.43;103103.00;5054174;28;46088;-75
2022/01/26 06:44:47;;;;;;;;;42.67;39.33;;;;;4.78;62.98;103096.69;5053980;28;45428;-72
2022/01/26 06:49:38;;;;;;;;;62.67;45.33;;;;;4.86;62.98;103110.09;5049951;28;45346;-72
2022/01/26 06:52:04;;;;;;;;;50.33;40.33;;;;;4.92;63.33;103120.84;5050293;28;46210;-73
2022/01/26 06:54:29;;;;;;;;;57.33;42.00;;;;;4.95;62.87;103126.19;5053076;28;45256;-72
2022/01/26 06:56:55;;;;;;;;;51.33;40.00;;;;;4.99;63.22;103127.16;5054134;28;45807;-73
2022/01/26 06:59:24;;;;;;;;;44.00;33.33;;;;;4.93;62.95;103114.69;5053746;28;45436;-72
2022/01/26 07:01:50;;;;;;;;;55.67;38.67;;;;;5.02;62.52;103120.09;5053483;28;46132;-74
2022/01/26 07:04:15;;;;;;;;;52.67;42.00;;;;;4.95;62.79;103110.25;5053099;28;45702;-72
2022/01/26 07:06:41;;;;;;;;;61.00;41.67;;;;;4.91;63.28;103119.97;5053505;28;45411;-72
2022/01/26 07:09:06;;;;;;;;;46.00;38.67;;;;;4.61;63.18;103068.09;5053566;28;45562;-73
2022/01/26 07:11:31;;;;;;;;;65.00;43.00;;;;;4.95;62.98;103115.56;5052454;28;46190;-71
2022/01/26 07:13:59;;;;;;;;;53.33;42.00;;;;;4.91;62.84;103109.31;5052175;28;45502;-73
2022/01/26 07:22:13;;;;;;;;;46.00;39.00;;;;;4.96;62.58;103106.72;4992041;28;45487;-74
2022/01/26 07:24:38;;;;;;;;;62.00;43.33;;;;;4.98;62.55;103110.31;4985267;28;45432;-73
2022/01/26 07:27:04;;;;;;;;;53.33;41.67;;;;;5.06;62.79;103107.75;5001997;28;45366;-73
2022/01/26 07:29:31;;;;;;;;;55.00;38.33;;;;;5.01;62.73;103097.06;5049222;28;45958;-73
2022/01/26 07:31:58;;;;;;;;;57.33;44.33;;;;;4.99;62.81;103113.84;5055186;28;46482;-73
2022/01/26 07:34:24;;;;;;;;;53.33;42.00;;;;;5.03;62.90;103116.56;5056693;28;45342;-73
2022/01/26 07:36:54;;;;;;;;;50.67;42.00;;;;;5.06;62.96;103134.34;5056994;28;45320;-73
2022/01/26 07:39:30;;;;;;;;;63.67;44.00;;;;;5.08;62.69;103135.25;5057014;28;45535;-74
2022/01/26 07:41:57;;;;;;;;;60.00;45.67;;;;;5.00;63.00;103107.69;5056780;28;46260;-72
2022/01/26 07:44:22;;;;;;;;;60.00;47.00;;;;;5.03;63.01;103118.34;5056859;28;45352;-72
2022/01/26 07:46:48;;;;;;;;;63.33;46.00;;;;;5.06;62.87;103121.03;5046121;28;45203;-72
2022/01/26 07:49:14;;;;;;;;;64.00;41.00;;;;;5.10;62.36;103122.91;5048866;28;45351;-73
2022/01/26 07:51:39;;;;;;;;;53.67;32.00;;;;;5.12;62.41;103131.75;5056732;28;46384;-71
2022/01/26 07:54:04;;;;;;;;;61.33;42.67;;;;;5.05;62.85;103122.81;5056661;28;45390;-71
2022/01/26 07:56:30;;;;;;;;;54.00;42.33;;;;;5.12;62.73;103135.31;5056780;28;45357;-73
2022/01/26 07:58:56;;;;;;;;;56.67;43.33;;;;;5.14;62.55;103141.56;5056727;28;45420;-72
2022/01/26 08:01:23;;;;;;;;;66.33;43.67;;;;;5.18;62.67;103142.50;5056294;28;45389;-72
2022/01/26 08:03:48;;;;;;;;;53.33;41.00;;;;;5.17;62.81;103149.59;5056372;28;45316;-73
2022/01/26 08:06:17;;;;;;;;;63.00;45.33;;;;;5.17;62.66;103148.69;5056334;28;45446;-73
2022/01/26 08:08:42;;;;;;;;;54.33;40.67;;;;;5.17;62.52;103136.31;5055027;28;45450;-73
2022/01/26 08:11:08;;;;;;;;;62.33;42.67;;;;;5.21;62.64;103135.47;5054924;28;45850;-74
2022/01/26 08:13:33;;;;;;;;;55.00;42.00;;;;;5.19;62.63;103129.22;5056566;28;45394;-73
2022/01/26 08:15:59;;;;;;;;;58.00;41.00;;;;;5.16;62.78;103110.56;5055014;28;45254;-73
2022/01/26 08:18:25;;;;;;;;;48.50;37.75;;;;;5.22;62.90;103115.97;5055954;28;45385;-72
2022/01/26 08:20:51;;;;;;;;;57.25;39.00;;;;;5.23;62.19;103116.88;5055958;28;45997;-72
2022/01/26 08:23:19;;;;;;;;;54.25;37.50;;;;;5.18;62.19;103129.22;5056299;28;45310;-73
2022/01/26 08:25:44;;;;;;;;;60.00;42.67;;;;;5.04;62.90;103110.38;5056333;28;45329;-73
2022/01/26 08:28:18;;;;;;;;;51.33;40.67;;;;;5.12;63.10;103119.38;5050651;28;45357;-72
2022/01/26 08:30:44;;;;;;;;;58.67;41.33;;;;;5.11;63.18;103114.03;5030066;28;45473;-73
2022/01/26 08:33:09;;;;;;;;;51.33;40.00;;;;;5.11;62.75;103114.91;5055434;28;45252;-72
2022/01/26 08:35:36;;;;;;;;;59.00;41.00;;;;;5.13;62.58;103105.19;5055932;28;45208;-73
2022/01/26 08:38:02;;;;;;;;;38.67;31.67;;;;;5.17;62.67;103127.44;5056029;28;45209;-73
2022/01/26 08:40:28;;;;;;;;;50.33;42.67;;;;;5.13;62.97;103114.94;5055601;28;45287;-72
2022/01/26 08:42:54;;;;;;;;;54.25;37.25;;;;;5.17;62.35;103104.38;5055952;28;45711;-72
2022/01/26 08:45:19;;;;;;;;;55.00;39.67;;;;;5.24;62.76;103111.56;5055925;28;45376;-73
2022/01/26 08:47:47;;;;;;;;;50.50;40.50;;;;;5.26;62.49;103125.78;5037117;28;45506;-71
2022/01/26 08:50:13;;;;;;;;;62.00;41.00;;;;;5.28;62.96;103136.44;5054478;28;47016;-71
2022/01/26 08:52:38;;;;;;;;;51.50;37.50;;;;;5.27;62.06;103135.53;5055515;28;45360;-72
2022/01/26 08:55:04;;;;;;;;;49.33;38.67;;;;;5.22;62.47;103129.28;5055977;28;46043;-73
2022/01/26 08:57:30;;;;;;;;;49.25;34.00;;;;;5.16;61.95;103129.19;5055412;28;46402;-73
2022/01/26 08:59:55;;;;;;;;;47.00;39.00;;;;;5.22;62.57;103136.34;5055777;28;45455;-73
2022/01/26 09:02:20;;;;;;;;;41.67;31.67;;;;;5.15;62.35;103130.06;5055413;28;45326;-74
2022/01/26 09:04:46;;;;;;;;;51.33;41.00;;;;;5.13;62.53;103137.09;5055548;28;45552;-74
2022/01/26 09:07:15;;;;;;;;;52.50;38.50;;;;;5.13;62.95;103134.44;5055473;28;45473;-74
2022/01/26 09:09:45;;;;;;;;;61.00;42.33;;;;;5.14;63.16;103138.91;5055677;28;46100;-74
2022/01/26 09:12:20;;;;;;;;;59.33;42.00;;;;;5.14;63.35;103143.31;5055388;28;45234;-73
2022/01/26 09:14:46;;;;;;;;;49.00;41.67;;;;;4.90;63.05;103115.50;5056127;28;45358;-73
2022/01/26 09:17:12;;;;;;;;;57.67;44.00;;;;;4.88;63.67;103116.34;5055231;28;45566;-73
2022/01/26 09:19:42;;;;;;;;;58.67;42.67;;;;;4.97;63.68;103150.16;5054952;28;45405;-72
2022/01/26 09:22:10;;;;;;;;;56.67;43.67;;;;;4.98;63.41;103151.94;5055176;28;45383;-72
2022/01/26 09:24:37;;;;;;;;;58.33;41.33;;;;;4.92;63.92;103152.75;5055648;28;45752;-74
2022/01/26 09:27:04;;;;;;;;;58.33;43.00;;;;;5.01;63.78;103166.19;5055269;28;45670;-72
2022/01/26 09:29:30;;;;;;;;;49.33;38.00;;;;;5.00;63.73;103166.16;5038150;28;45389;-72
2022/01/26 09:31:56;;;;;;;;;57.67;44.00;;;;;4.93;64.03;103144.78;5051904;28;45404;-74
2022/01/26 09:34:23;;;;;;;;;54.00;43.00;;;;;5.07;64.14;103173.34;5054927;28;45309;-74
2022/01/26 09:36:50;;;;;;;;;63.00;44.67;;;;;5.11;64.05;103168.09;5054708;28;46218;-73
2022/01/26 09:39:18;;;;;;;;;64.00;46.67;;;;;5.15;63.55;103175.25;5055062;28;45338;-73
2022/01/26 09:41:48;;;;;;;;;66.67;49.00;;;;;5.18;63.54;103164.69;5054801;28;45365;-73
2022/01/26 09:44:15;;;;;;;;;62.00;46.33;;;;;5.28;63.51;103166.56;5053586;28;45404;-74
2022/01/26 09:46:41;;;;;;;;;56.67;43.00;;;;;5.35;63.73;103177.34;5044237;28;45267;-73
2022/01/26 09:49:07;;;;;;;;;63.67;45.00;;;;;5.38;63.47;103178.25;5046191;28;45495;-74
2022/01/26 09:51:39;;;;;;;;;54.67;41.00;;;;;5.45;63.18;103188.09;5054584;28;45315;-73
2022/01/26 09:54:14;;;;;;;;;61.67;45.00;;;;;5.48;63.13;103190.81;5055184;28;45322;-74
2022/01/26 09:56:40;;;;;;;;;64.67;43.67;;;;;5.53;63.41;103204.19;5054812;28;45404;-71
2022/01/26 09:59:08;;;;;;;;;60.00;41.67;;;;;5.55;63.06;103203.31;5054841;28;46391;-72
2022/01/26 10:01:40;;;;;;;;;55.67;41.67;;;;;5.58;63.00;103197.16;5054979;28;45266;-73
2022/01/26 10:04:06;;;;;;;;;49.75;38.25;;;;;5.55;63.04;103195.34;5054731;28;45334;-72
2022/01/26 10:06:32;;;;;;;;;51.25;40.25;;;;;5.61;63.43;103203.41;5054423;28;45239;-72
2022/01/26 10:09:14;;;;;;;;;55.50;41.00;;;;;5.65;62.90;103215.88;5054509;28;46263;-74
2022/01/26 10:17:27;;;;;;;;;50.75;38.75;;;;;5.69;62.84;103192.91;5054665;28;45355;-74
2022/01/26 10:20:00;;;;;;;;;49.50;39.50;;;;;5.67;62.95;103192.88;5054097;28;45404;-73
2022/01/26 10:22:28;;;;;;;;;58.25;40.00;;;;;5.66;62.74;103198.16;5053939;28;45298;-73
2022/01/26 10:25:11;;;;;;;;;67.00;40.33;;;;;5.67;63.23;103194.63;5054824;28;45416;-73
2022/01/26 10:27:48;;;;;;;;;54.50;37.50;;;;;5.71;63.17;103204.44;5051725;28;45558;-73
2022/01/26 10:30:15;;;;;;;;;58.00;42.75;;;;;5.63;62.90;103175.06;5037014;28;45402;-74
2022/01/26 10:32:45;;;;;;;;;61.25;41.75;;;;;5.75;62.77;103190.31;5054339;28;45397;-73
2022/01/26 10:35:10;;;;;;;;;55.75;41.75;;;;;5.69;63.31;103177.81;5054218;28;45319;-72
2022/01/26 10:37:40;;;;;;;;;59.50;39.50;;;;;5.73;63.55;103178.72;5054280;28;45505;-73
2022/01/26 10:40:14;;;;;;;;;50.50;40.75;;;;;5.76;63.20;103173.47;5054016;28;45520;-74
2022/01/26 10:42:39;;;;;;;;;47.75;39.50;;;;;5.81;63.52;103178.81;5052880;28;45509;-73
2022/01/26 10:45:15;;;;;;;;;57.00;38.50;;;;;5.68;63.11;103184.00;5054263;28;45443;-74
2022/01/26 10:47:46;;;;;;;;;56.67;43.67;;;;;5.57;63.53;103184.72;5035837;28;45670;-72
2022/01/26 10:50:45;;;;;;;;;48.25;40.25;;;;;5.61;63.96;103198.09;5053982;28;46371;-73
2022/01/26 10:53:15;;;;;;;;;43.50;38.75;;;;;5.61;63.36;103181.25;5054095;28;45468;-74
2022/01/26 10:55:41;;;;;;;;;58.33;40.00;;;;;5.53;63.52;103164.28;5054354;28;45331;-74
2022/01/26 10:58:08;;;;;;;;;51.50;40.00;;;;;5.63;63.69;103182.13;5057419;28;45545;-73
2022/01/26 11:00:43;;;;;;;;;54.25;38.00;;;;;5.65;64.03;103169.75;5057583;28;45502;-72
2022/01/26 11:03:09;;;;;;;;;45.75;33.25;;;;;5.67;64.39;103162.69;5057440;28;45334;-73
2022/01/26 11:05:35;;;;;;;;;50.00;40.00;;;;;5.66;64.33;103174.22;5057485;28;45488;-74
2022/01/26 11:08:02;;;;;;;;;59.75;41.25;;;;;5.64;64.48;103173.28;5056215;28;47166;-74
2022/01/26 11:10:33;;;;;;;;;52.33;40.00;;;;;5.74;64.75;103171.66;5057312;28;45346;-72
2022/01/26 11:12:59;;;;;;;;;57.33;38.00;;;;;5.79;64.18;103151.28;5057507;28;45389;-72
2022/01/26 11:15:24;;;;;;;;;55.67;40.33;;;;;5.71;64.20;103138.78;5057341;28;45362;-72
2022/01/26 11:17:51;;;;;;;;;62.00;41.33;;;;;5.90;64.07;103160.34;5057196;28;45386;-73
2022/01/26 11:20:40;;;;;;;;;46.75;34.75;;;;;5.90;63.59;103157.69;5055549;28;47341;-73
2022/01/26 11:23:06;;;;;;;;;54.50;37.00;;;;;5.87;64.01;103145.19;5056042;28;45309;-71
2022/01/26 11:25:43;;;;;;;;;46.50;36.25;;;;;5.86;64.14;103124.78;5056040;28;45392;-72
2022/01/26 11:28:24;;;;;;;;;46.50;38.25;;;;;5.90;63.92;103131.06;5051468;28;45482;-73
2022/01/26 11:30:51;;;;;;;;;57.00;43.33;;;;;5.96;64.11;103133.78;5030281;28;47265;-74
2022/01/26 11:33:20;;;;;;;;;40.50;36.75;;;;;5.97;63.76;103135.56;5056985;28;45361;-73
2022/01/26 11:35:48;;;;;;;;;62.50;41.00;;;;;6.00;63.76;103146.28;5057557;28;45390;-73
2022/01/26 11:47:09;;;;;;;;;44.50;32.00;;;;;6.09;63.89;103125.06;5044050;28;45382;-72
2022/01/26 11:49:37;;;;;;;;;55.75;40.75;;;;;6.13;63.86;103125.97;5051616;28;45496;-73
2022/01/26 11:52:04;;;;;;;;;42.25;29.50;;;;;6.12;63.08;103109.13;5056641;28;45357;-73
2022/01/26 11:54:44;;;;;;;;;58.25;37.00;;;;;6.10;63.76;103110.88;5056446;28;45400;-72
2022/01/26 11:57:15;;;;;;;;;48.00;38.00;;;;;6.03;63.85;103070.00;5056834;28;45435;-74
2022/01/26 11:59:47;;;;;;;;;37.75;30.50;;;;;5.95;63.34;103054.81;5056452;28;45939;-73
2022/01/26 12:02:31;;;;;;;;;43.25;33.75;;;;;6.20;63.61;103102.13;5056381;28;45959;-74
2022/01/26 12:05:06;;;;;;;;;37.25;24.25;;;;;6.24;63.27;103085.25;5054900;28;45353;-73
2022/01/26 12:07:32;;;;;;;;;47.75;36.75;;;;;6.30;63.17;103093.31;5056501;28;45502;-72
2022/01/26 12:09:57;;;;;;;;;52.25;36.25;;;;;6.34;63.08;103087.13;5056233;28;45405;-73
2022/01/26 12:12:24;;;;;;;;;55.25;37.00;;;;;6.39;63.68;103079.16;5056285;28;46003;-73
2022/01/26 12:15:03;;;;;;;;;34.75;29.50;;;;;6.25;63.45;103057.75;5055161;28;45325;-72
2022/01/26 12:17:33;;;;;;;;;43.25;34.25;;;;;6.41;63.06;103080.97;5056442;28;45310;-75
2022/01/26 12:34:33;;;;;;;;;50.50;36.00;;;;;6.23;63.95;103077.25;5056399;28;45292;-74
2022/01/26 12:37:36;;;;;;;;;34.00;32.75;;;;;6.22;63.84;103064.81;5056132;28;45443;-74
2022/01/26 12:45:15;;;;;;;;;48.25;39.00;;;;;6.25;63.50;103091.47;5055954;28;46199;-72
2022/01/26 12:47:45;;;;;;;;;46.25;34.50;;;;;6.29;63.87;103080.00;5037357;28;45358;-73
2022/01/26 12:50:12;;;;;;;;;44.50;34.75;;;;;6.33;63.59;103084.44;5041514;28;45449;-73
2022/01/26 12:52:37;;;;;;;;;45.50;32.75;;;;;6.34;63.41;103081.81;5055587;28;45275;-71
2022/01/26 12:55:03;;;;;;;;;42.75;36.25;;;;;6.32;63.25;103072.00;5055856;28;46114;-73
2022/01/26 12:57:28;;;;;;;;;49.25;39.25;;;;;6.35;63.46;103088.94;5055624;28;45378;-72
2022/01/26 13:00:04;;;;;;;;;45.00;35.75;;;;;6.30;63.75;103081.75;5056113;28;45377;-73
2022/01/26 13:02:30;;;;;;;;;55.25;39.75;;;;;6.21;63.70;103079.03;5055438;28;45662;-72
2022/01/26 13:05:03;;;;;;;;;58.00;38.00;;;;;6.18;63.58;103066.56;5053817;28;45709;-74
2022/01/26 13:07:29;;;;;;;;;40.75;33.75;;;;;6.28;63.44;103072.88;5055305;28;46184;-73
2022/01/26 13:09:55;;;;;;;;;49.75;35.75;;;;;6.23;63.67;103059.50;5055825;28;45354;-73
2022/01/26 13:12:32;;;;;;;;;40.25;33.25;;;;;6.26;64.03;103066.63;5055539;28;45444;-72
2022/01/26 13:15:05;;;;;;;;;35.50;30.50;;;;;5.88;63.36;103013.91;5055302;28;45391;-73
2022/01/26 13:17:50;;;;;;;;;44.25;34.75;;;;;6.15;63.74;103061.22;5055439;28;45252;-73
2022/01/26 13:20:41;;;;;;;;;40.75;30.50;;;;;6.13;63.61;103054.06;5054191;28;45514;-72
2022/01/26 13:23:33;;;;;;;;;37.50;30.00;;;;;6.18;63.95;103063.00;5054263;28;45365;-72
2022/01/26 13:26:21;;;;;;;;;46.75;34.00;;;;;6.20;64.24;103055.94;5055315;28;46390;-71
2022/01/26 13:34:46;;;;;;;;;55.50;40.25;;;;;6.12;64.59;103058.53;5020883;28;45521;-74
2022/01/26 13:50:20;;;;;;;;;55.00;41.50;;;;;6.39;63.47;103057.84;5053547;28;45314;-73
2022/01/26 14:00:23;;;;;;;;;56.00;38.75;;;;;6.46;63.50;103065.06;5054608;28;45356;-73
2022/01/26 14:02:55;;;;;;;;;33.00;31.25;;;;;6.50;64.01;103053.50;5054554;28;45345;-73
2022/01/26 14:05:20;;;;;;;;;60.25;42.25;;;;;6.59;63.60;103048.25;5053149;28;46556;-74
2022/01/26 14:07:46;;;;;;;;;53.50;39.00;;;;;6.65;62.55;103050.97;5053014;28;48487;-74
2022/01/26 14:10:11;;;;;;;;;48.25;37.00;;;;;6.55;62.03;103035.78;5054744;28;45242;-74
2022/01/26 14:12:41;;;;;;;;;45.25;38.50;;;;;6.65;61.97;103056.28;5054859;28;46065;-72
2022/01/26 14:15:08;;;;;;;;;56.75;42.25;;;;;6.60;61.57;103046.50;5054651;28;45389;-74
2022/01/26 14:23:17;;;;;;;;;48.00;40.50;;;;;6.47;62.45;103034.84;5054649;28;45357;-71
2022/01/26 14:25:49;;;;;;;;;41.50;32.00;;;;;6.36;62.38;103028.56;5052903;28;47361;-73
2022/01/26 14:28:18;;;;;;;;;52.00;39.25;;;;;6.32;62.77;103040.03;5047782;28;46603;-73
2022/01/26 14:30:55;;;;;;;;;45.75;36.25;;;;;6.18;63.07;103036.38;5028399;28;45283;-73
2022/01/26 14:36:24;;;;;;;;;60.75;40.25;;;;;5.91;63.69;103002.41;5054189;28;45238;-72
2022/01/26 15:00:37;;;;;;;;;61.25;43.25;;;;;5.88;64.31;103045.84;5053945;28;45361;-74
2022/01/26 15:29:59;;;;;;;;;49.00;30.50;;;;;5.80;64.97;103057.25;5053723;28;45271;-71
2022/01/26 15:33:26;;;;;;;;;42.25;32.25;;;;;5.75;64.79;103054.56;5053261;28;45562;-72
2022/01/26 15:44:18;;;;;;;;;39.75;28.00;;;;;5.83;65.04;103046.66;5055037;28;45330;-73
2022/01/26 15:57:47;;;;;;;;;34.00;29.00;;;;;5.78;64.61;103038.63;5056848;28;45220;-73
2022/01/26 16:08:26;;;;;;;;;40.25;34.50;;;;;5.91;64.37;103034.34;5056435;28;45330;-74
2022/01/26 16:16:35;;;;;;;;;36.50;34.00;;;;;5.92;64.38;103044.13;5056360;28;45373;-71
2022/01/26 16:26:15;;;;;;;;;53.75;40.00;;;;;5.75;65.06;103027.94;5056367;28;45455;-72
2022/01/26 16:37:48;;;;;;;;;41.25;36.25;;;;;5.75;65.25;103019.97;5055804;28;45520;-72
2022/01/26 17:24:24;;;;;;;;;63.33;42.67;;;;;5.58;65.75;103009.16;5055158;28;45345;-71
2022/01/26 18:05:05;;;;;;;;;57.50;39.25;;;;;5.82;65.27;103028.91;5054497;28;45385;-70
2022/01/26 18:31:53;;;;;;;;;53.67;43.67;;;;;6.10;64.41;103054.97;5038433;28;45462;-71
2022/01/26 18:50:42;;;;;;;;;56.00;40.33;;;;;5.95;65.09;103070.78;5054071;28;45296;-73
2022/01/26 18:53:08;;;;;;;;;60.00;42.67;;;;;5.92;65.39;103074.31;5053801;28;45295;-72
2022/01/26 18:55:34;;;;;;;;;59.00;40.00;;;;;5.81;65.36;103083.91;5038804;28;45496;-76
2022/01/26 18:57:59;;;;;;;;;70.67;46.33;;;;;5.85;66.00;103083.06;5052234;28;46575;-74
2022/01/26 19:00:25;;;;;;;;;53.33;42.00;;;;;5.69;65.65;103083.78;5054407;28;45324;-73
2022/01/26 19:02:50;;;;;;;;;59.67;44.00;;;;;5.61;66.05;103088.97;5054095;28;45448;-74
2022/01/26 19:05:16;;;;;;;;;41.00;31.67;;;;;5.61;66.43;103098.75;5052509;28;46472;-75
2022/01/26 19:07:42;;;;;;;;;63.00;45.67;;;;;5.56;67.16;103088.03;5053762;28;46548;-74
2022/01/26 19:10:09;;;;;;;;;63.67;45.33;;;;;5.38;67.13;103055.00;5053793;28;45378;-73
2022/01/26 19:12:36;;;;;;;;;63.00;46.00;;;;;5.59;67.20;103089.84;5054273;28;45302;-75
2022/01/26 19:15:07;;;;;;;;;70.33;45.33;;;;;5.50;67.08;103068.47;5053947;28;45562;-74
2022/01/26 19:17:46;;;;;;;;;61.33;45.00;;;;;5.59;66.98;103082.78;5053709;28;45935;-73
2022/01/26 19:23:16;;;;;;;;;59.33;44.00;;;;;5.77;66.45;103084.75;5057209;28;45539;-76
2022/01/26 19:25:48;;;;;;;;;60.00;44.33;;;;;5.78;66.26;103067.03;5056740;28;46492;-77
2022/01/26 19:28:23;;;;;;;;;52.33;44.67;;;;;5.83;66.63;103067.94;5051270;28;45465;-75
2022/01/26 19:44:47;;;;;;;;;70.33;51.33;;;;;5.87;66.51;103046.69;5041720;28;45540;-75
2022/01/26 19:50:42;;;;;;;;;66.67;49.33;;;;;5.76;66.45;103044.81;5031336;28;45877;-72
2022/01/26 19:53:06;;;;;;;;;61.67;45.67;;;;;5.55;66.84;103042.78;5007536;28;45380;-73
2022/01/26 19:55:31;;;;;;;;;62.00;45.67;;;;;5.38;67.22;103026.63;4995903;28;46045;-73
2022/01/26 19:57:57;;;;;;;;;61.67;48.67;;;;;5.42;67.40;103036.44;5023585;28;45780;-71
2022/01/26 20:00:23;;;;;;;;;62.33;45.33;;;;;5.46;67.75;103029.38;5034513;28;46150;-73
2022/01/26 20:02:49;;;;;;;;;62.33;43.67;;;;;5.56;67.18;103036.59;5026373;28;45610;-71
2022/01/26 20:05:17;;;;;;;;;74.00;50.00;;;;;5.58;67.09;103034.84;5028736;28;45405;-72
2022/01/26 20:07:46;;;;;;;;;62.67;45.33;;;;;5.58;66.68;103033.09;5017582;28;45403;-69
2022/01/26 20:10:14;;;;;;;;;59.67;42.33;;;;;5.54;67.56;103047.22;5023731;28;46070;-72
2022/01/26 20:12:47;;;;;;;;;64.67;48.33;;;;;5.46;67.68;103050.66;5022668;28;45398;-70
2022/01/26 20:15:13;;;;;;;;;60.33;46.33;;;;;5.39;67.98;103043.50;5025438;28;45347;-71
2022/01/26 20:17:42;;;;;;;;;67.33;49.00;;;;;5.31;68.50;103038.06;5021173;28;45385;-72
2022/01/26 20:20:08;;;;;;;;;51.75;41.00;;;;;5.25;68.20;103038.91;5034627;28;46257;-73
2022/01/26 20:22:34;;;;;;;;;66.67;41.67;;;;;5.20;68.51;103037.03;5021132;28;45334;-71
2022/01/26 20:25:01;;;;;;;;;54.00;43.25;;;;;5.26;67.91;103037.13;5017395;28;46027;-71
2022/01/26 20:27:26;;;;;;;;;59.33;46.00;;;;;5.29;68.21;103038.06;5032126;28;45461;-71
2022/01/26 20:30:00;;;;;;;;;46.00;37.33;;;;;5.27;67.67;103029.16;5038597;28;46015;-72
2022/01/26 20:32:26;;;;;;;;;60.67;45.33;;;;;5.39;67.47;103040.81;5042703;28;45291;-71
2022/01/26 20:34:51;;;;;;;;;57.67;41.00;;;;;5.42;67.88;103030.22;5038983;28;45395;-71
2022/01/26 20:37:17;;;;;;;;;59.00;43.33;;;;;5.46;67.77;103030.28;5043008;28;45356;-74
2022/01/26 20:39:42;;;;;;;;;59.00;43.00;;;;;5.41;67.80;103016.03;5039043;28;46154;-71
2022/01/26 20:42:08;;;;;;;;;58.33;42.00;;;;;5.51;67.29;103031.25;5042415;28;45362;-74
2022/01/26 20:44:33;;;;;;;;;65.67;49.00;;;;;5.50;67.52;103041.84;5038728;28;45465;-72
2022/01/26 20:46:59;;;;;;;;;62.67;46.00;;;;;5.43;67.75;103034.69;5029405;28;45508;-70
2022/01/26 20:49:24;;;;;;;;;59.33;44.33;;;;;5.35;68.07;103029.28;5034879;28;46212;-73
2022/01/26 20:51:50;;;;;;;;;60.00;42.00;;;;;5.33;68.05;103041.66;5034790;28;45410;-71
2022/01/26 20:54:15;;;;;;;;;58.00;43.33;;;;;5.38;67.61;103044.34;5046968;28;45313;-72
2022/01/26 20:56:41;;;;;;;;;59.00;46.00;;;;;5.45;67.90;103044.44;5034741;28;45382;-70
2022/01/26 20:59:06;;;;;;;;;65.67;47.67;;;;;5.36;67.80;103033.69;5034958;28;45485;-70
2022/01/26 21:01:32;;;;;;;;;47.33;38.33;;;;;5.37;67.24;103037.25;5035034;28;45530;-72
2022/01/26 21:03:58;;;;;;;;;60.00;41.33;;;;;5.36;67.70;103031.03;5039926;28;45308;-72
2022/01/26 21:06:23;;;;;;;;;55.33;41.00;;;;;5.33;67.53;103015.97;5040434;28;45668;-71
2022/01/26 21:08:49;;;;;;;;;56.25;36.25;;;;;5.35;67.83;103033.69;5035280;28;46579;-70
2022/01/26 21:11:14;;;;;;;;;63.33;46.00;;;;;5.37;68.02;103031.94;5034892;28;45480;-71
2022/01/26 21:13:40;;;;;;;;;63.33;43.00;;;;;5.38;67.91;103026.63;5023786;28;45442;-72
2022/01/26 21:16:06;;;;;;;;;47.67;38.33;;;;;5.46;67.57;103030.28;5035482;28;45255;-72
2022/01/26 21:18:34;;;;;;;;;70.67;46.00;;;;;5.38;67.59;103016.00;5054391;28;46710;-71
2022/01/26 21:21:01;;;;;;;;;57.67;45.00;;;;;5.43;67.72;103021.38;5055262;28;45421;-72
2022/01/26 21:23:27;;;;;;;;;60.67;44.00;;;;;5.39;67.32;103023.09;5041372;28;45283;-71
2022/01/26 21:25:52;;;;;;;;;59.67;42.33;;;;;5.38;67.44;103018.66;5048133;28;45346;-71
2022/01/26 21:28:18;;;;;;;;;60.00;45.67;;;;;5.38;67.29;103021.31;5047956;28;46298;-71
2022/01/26 21:30:44;;;;;;;;;67.00;46.67;;;;;5.35;67.78;103023.06;5046472;28;45755;-72
2022/01/26 21:33:12;;;;;;;;;60.50;41.00;;;;;5.25;67.60;103011.41;5054769;28;45519;-71
2022/01/26 21:35:37;;;;;;;;;51.33;41.00;;;;;5.28;67.92;103009.66;5055279;28;45362;-71
2022/01/26 21:38:03;;;;;;;;;58.33;41.33;;;;;5.31;67.84;103011.47;5054954;28;45302;-70
2022/01/26 21:40:28;;;;;;;;;58.25;42.50;;;;;5.33;67.56;103012.41;5040809;28;45427;-69
2022/01/26 21:42:54;;;;;;;;;49.75;40.50;;;;;5.24;67.52;102999.88;5054420;28;45291;-71
2022/01/26 21:45:20;;;;;;;;;63.33;44.33;;;;;5.31;67.19;103009.72;5047407;28;45324;-69
2022/01/26 21:47:46;;;;;;;;;55.00;38.50;;;;;5.40;66.84;103010.69;5045467;28;46145;-70
2022/01/26 21:50:12;;;;;;;;;55.75;38.25;;;;;5.44;67.12;103009.88;5053407;28;45314;-70
2022/01/26 21:52:37;;;;;;;;;49.00;40.50;;;;;5.52;67.18;102998.44;5045805;28;45377;-70
2022/01/26 21:55:03;;;;;;;;;56.50;43.75;;;;;5.59;67.22;102999.41;5043008;28;45362;-71
2022/01/26 21:57:30;;;;;;;;;55.75;41.50;;;;;5.61;66.39;102990.53;5045244;28;46221;-72
2022/01/26 21:59:56;;;;;;;;;49.25;38.50;;;;;5.65;66.84;102999.44;5055328;28;45310;-70
2022/01/26 22:02:22;;;;;;;;;56.00;39.67;;;;;5.63;66.50;102982.56;5054886;28;45322;-70
2022/01/26 22:04:47;;;;;;;;;62.67;42.67;;;;;5.69;66.53;102988.88;5054880;28;45622;-73
2022/01/26 22:07:13;;;;;;;;;60.67;41.00;;;;;5.51;66.52;102967.38;5054478;28;46130;-72
2022/01/26 22:09:38;;;;;;;;;56.25;41.25;;;;;5.60;66.51;102979.91;5054811;28;45359;-71
2022/01/26 22:12:05;;;;;;;;;63.33;46.00;;;;;5.62;66.30;102989.66;5054641;28;45810;-72